Time;durP1;ratioP1;P1;durP2;ratioP2;P2;SDS_P1;SDS_P2;PMS_P1;PMS_P2;Temp;Humidity;BMP_temperature;BMP_pressure;BME280_temperature;BME280_humidity;BME280_pressure;Samples;Min_cycle;Max_cycle;Signal;HPM_P1;HPM_P2
2023/07/27 00:01:07;;;;;;;0.10;0.10;;;;;;;;;;7401830;19;20137;-75
2023/07/27 00:03:36;;;;;;;0.00;0.00;;;;;;;;;;7400495;19;20170;-76
2023/07/27 00:06:05;;;;;;;0.00;0.00;;;;;;;;;;7401992;19;20144;-75
2023/07/27 00:08:34;;;;;;;0.00;0.00;;;;;;;;;;7398167;19;20160;-75
2023/07/27 00:11:03;;;;;;;0.00;0.00;;;;;;;;;;7398659;19;20628;-75
2023/07/27 00:13:31;;;;;;;0.00;0.00;;;;;;;;;;7400507;19;20153;-75
2023/07/27 00:16:04;;;;;;;0.00;0.00;;;;;;;;;;7401117;19;20177;-75
2023/07/27 00:18:33;;;;;;;0.00;0.00;;;;;;;;;;7398432;19;20167;-75
2023/07/27 00:21:02;;;;;;;0.00;0.00;;;;;;;;;;7398439;19;20181;-75
2023/07/27 00:23:31;;;;;;;0.10;0.10;;;;;;;;;;7398422;19;20180;-75
2023/07/27 00:26:00;;;;;;;0.00;0.00;;;;;;;;;;7400173;19;20160;-75
2023/07/27 00:28:29;;;;;;;0.00;0.00;;;;;;;;;;7396736;19;20148;-75
2023/07/27 00:30:58;;;;;;;0.10;0.10;;;;;;;;;;7402498;19;20133;-75
2023/07/27 00:33:29;;;;;;;0.10;0.10;;;;;;;;;;7400217;19;20662;-75
2023/07/27 00:35:58;;;;;;;0.00;0.00;;;;;;;;;;7400589;19;20168;-74
2023/07/27 00:38:28;;;;;;;0.00;0.00;;;;;;;;;;7399607;19;20588;-76
2023/07/27 00:40:57;;;;;;;0.00;0.00;;;;;;;;;;7399714;19;20157;-76
2023/07/27 00:43:30;;;;;;;0.00;0.00;;;;;;;;;;7398769;19;20180;-74
2023/07/27 00:46:00;;;;;;;0.00;0.00;;;;;;;;;;7399722;19;20129;-74
2023/07/27 00:48:31;;;;;;;0.00;0.00;;;;;;;;;;7398750;19;20136;-75
2023/07/27 00:51:00;;;;;;;0.00;0.00;;;;;;;;;;7395174;19;20140;-75
2023/07/27 00:53:30;;;;;;;0.00;0.00;;;;;;;;;;7386633;19;20184;-74
2023/07/27 00:56:00;;;;;;;0.00;0.00;;;;;;;;;;7393747;19;20169;-75
2023/07/27 00:58:29;;;;;;;0.00;0.00;;;;;;;;;;7393856;19;20136;-75
2023/07/27 01:00:58;;;;;;;0.00;0.00;;;;;;;;;;7391686;19;20152;-75
2023/07/27 01:03:27;;;;;;;0.00;0.00;;;;;;;;;;7390849;19;20172;-75
2023/07/27 01:05:59;;;;;;;0.00;0.00;;;;;;;;;;7391893;19;20144;-74
2023/07/27 01:08:27;;;;;;;0.00;0.00;;;;;;;;;;7389243;19;20153;-75
2023/07/27 01:10:58;;;;;;;0.10;0.10;;;;;;;;;;7392444;19;20148;-74
2023/07/27 01:13:31;;;;;;;0.10;0.10;;;;;;;;;;7391617;19;20177;-75
2023/07/27 01:16:02;;;;;;;0.00;0.00;;;;;;;;;;7394481;19;20163;-75
2023/07/27 01:18:34;;;;;;;0.00;0.00;;;;;;;;;;7391850;19;20629;-74
2023/07/27 01:21:10;;;;;;;0.00;0.00;;;;;;;;;;7391065;19;20125;-75
2023/07/27 01:23:55;;;;;;;0.10;0.10;;;;;;;;;;7388050;19;20209;-75
2023/07/27 01:26:32;;;;;;;0.00;0.00;;;;;;;;;;7390792;19;20160;-75
2023/07/27 01:29:07;;;;;;;0.10;0.10;;;;;;;;;;7390911;19;20141;-75
2023/07/27 01:31:43;;;;;;;0.00;0.00;;;;;;;;;;7392329;19;20133;-75
2023/07/27 01:34:15;;;;;;;0.00;0.00;;;;;;;;;;7389470;19;20188;-75
2023/07/27 01:36:45;;;;;;;0.03;0.03;;;;;;;;;;7390467;19;20152;-75
2023/07/27 01:39:15;;;;;;;0.07;0.07;;;;;;;;;;7391175;19;20155;-75
2023/07/27 01:41:45;;;;;;;0.00;0.00;;;;;;;;;;7390298;19;20157;-75
2023/07/27 01:44:14;;;;;;;0.00;0.00;;;;;;;;;;7390354;19;20176;-75
2023/07/27 01:46:47;;;;;;;0.00;0.00;;;;;;;;;;7389992;19;20157;-75
2023/07/27 01:49:16;;;;;;;0.10;0.10;;;;;;;;;;7390574;19;20185;-75
2023/07/27 01:51:46;;;;;;;0.00;0.00;;;;;;;;;;7390064;19;20165;-75
2023/07/27 01:54:16;;;;;;;0.00;0.00;;;;;;;;;;7389316;19;20180;-75
2023/07/27 01:56:46;;;;;;;0.00;0.00;;;;;;;;;;7388751;19;20160;-75
2023/07/27 01:59:16;;;;;;;0.10;0.10;;;;;;;;;;7390948;19;20175;-75
2023/07/27 02:01:48;;;;;;;0.00;0.00;;;;;;;;;;7388937;19;20676;-75
2023/07/27 02:04:17;;;;;;;0.00;0.00;;;;;;;;;;7389337;19;20252;-75
2023/07/27 02:06:46;;;;;;;0.00;0.00;;;;;;;;;;7389551;19;20156;-75
2023/07/27 02:09:15;;;;;;;0.00;0.00;;;;;;;;;;7389521;19;20158;-75
2023/07/27 02:11:45;;;;;;;0.10;0.10;;;;;;;;;;7389956;19;20141;-75
2023/07/27 02:14:17;;;;;;;0.00;0.00;;;;;;;;;;7390206;19;20152;-74
2023/07/27 02:16:53;;;;;;;0.00;0.00;;;;;;;;;;7391744;19;20141;-75
2023/07/27 02:19:24;;;;;;;0.00;0.00;;;;;;;;;;7389798;19;20148;-75
2023/07/27 02:21:54;;;;;;;0.00;0.00;;;;;;;;;;7388313;19;20153;-75
2023/07/27 02:24:24;;;;;;;0.10;0.10;;;;;;;;;;7390908;19;20181;-75
2023/07/27 02:26:53;;;;;;;0.00;0.00;;;;;;;;;;7388460;19;20227;-76
2023/07/27 02:29:22;;;;;;;0.00;0.00;;;;;;;;;;7388133;19;20135;-76
2023/07/27 02:31:54;;;;;;;0.10;0.10;;;;;;;;;;7389758;19;20125;-75
2023/07/27 02:34:23;;;;;;;0.07;0.07;;;;;;;;;;7389454;19;20161;-75
2023/07/27 02:36:53;;;;;;;0.00;0.00;;;;;;;;;;7388883;19;20220;-75
2023/07/27 02:39:22;;;;;;;0.10;0.10;;;;;;;;;;7389700;19;20155;-75
2023/07/27 02:41:51;;;;;;;0.00;0.00;;;;;;;;;;7391085;19;20148;-75
2023/07/27 02:44:22;;;;;;;0.00;0.00;;;;;;;;;;7388340;19;20180;-75
2023/07/27 02:46:54;;;;;;;0.00;0.00;;;;;;;;;;7389720;19;20220;-75
2023/07/27 02:49:23;;;;;;;0.00;0.00;;;;;;;;;;7387580;19;20155;-75
2023/07/27 02:51:52;;;;;;;0.10;0.10;;;;;;;;;;7387626;19;20149;-75
2023/07/27 02:54:21;;;;;;;0.00;0.00;;;;;;;;;;7389809;19;20184;-75
2023/07/27 02:56:51;;;;;;;0.10;0.10;;;;;;;;;;7387881;19;20156;-76
2023/07/27 02:59:27;;;;;;;0.00;0.00;;;;;;;;;;7389014;19;20152;-76
2023/07/27 03:01:59;;;;;;;0.00;0.00;;;;;;;;;;7386460;19;20148;-75
2023/07/27 03:04:33;;;;;;;0.00;0.00;;;;;;;;;;7387993;19;20183;-75
2023/07/27 03:07:02;;;;;;;0.10;0.10;;;;;;;;;;7389103;19;20152;-75
2023/07/27 03:09:31;;;;;;;0.00;0.00;;;;;;;;;;7387078;19;20164;-75
2023/07/27 03:12:00;;;;;;;0.00;0.00;;;;;;;;;;7387767;19;20156;-75
2023/07/27 03:14:29;;;;;;;0.00;0.00;;;;;;;;;;7387181;19;20184;-74
2023/07/27 03:17:01;;;;;;;0.00;0.00;;;;;;;;;;7386472;19;20160;-75
2023/07/27 03:19:30;;;;;;;0.10;0.10;;;;;;;;;;7388099;19;20160;-75
2023/07/27 03:21:59;;;;;;;0.10;0.10;;;;;;;;;;7387503;19;20149;-75
2023/07/27 03:24:28;;;;;;;0.00;0.00;;;;;;;;;;7389427;19;20157;-75
2023/07/27 03:26:57;;;;;;;0.00;0.00;;;;;;;;;;7388855;19;20129;-75
2023/07/27 03:29:26;;;;;;;0.10;0.10;;;;;;;;;;7386513;19;20148;-75
2023/07/27 03:31:55;;;;;;;0.00;0.00;;;;;;;;;;7387150;19;20154;-74
2023/07/27 03:34:27;;;;;;;0.00;0.00;;;;;;;;;;7385835;19;20177;-75
2023/07/27 03:36:56;;;;;;;0.00;0.00;;;;;;;;;;7387377;19;20152;-75
2023/07/27 03:39:25;;;;;;;0.10;0.10;;;;;;;;;;7388734;19;20144;-75
2023/07/27 03:41:54;;;;;;;0.10;0.10;;;;;;;;;;7387088;19;20167;-75
2023/07/27 03:44:23;;;;;;;0.00;0.00;;;;;;;;;;7386093;19;20188;-74
2023/07/27 03:46:52;;;;;;;0.10;0.10;;;;;;;;;;7386621;19;20157;-75
2023/07/27 03:49:21;;;;;;;0.00;0.00;;;;;;;;;;7387342;19;20165;-75
2023/07/27 03:51:52;;;;;;;0.00;0.00;;;;;;;;;;7385574;19;20153;-75
2023/07/27 03:54:23;;;;;;;0.00;0.00;;;;;;;;;;7385700;19;20180;-73
2023/07/27 03:56:52;;;;;;;0.10;0.10;;;;;;;;;;7385292;19;20156;-75
2023/07/27 03:59:21;;;;;;;0.00;0.00;;;;;;;;;;7388664;19;20141;-75
2023/07/27 04:01:50;;;;;;;0.00;0.00;;;;;;;;;;7385629;19;20164;-74
2023/07/27 04:04:19;;;;;;;0.10;0.10;;;;;;;;;;7384558;19;20256;-75
2023/07/27 04:06:52;;;;;;;0.00;0.00;;;;;;;;;;7384914;19;20152;-75
2023/07/27 04:09:21;;;;;;;0.00;0.00;;;;;;;;;;7386386;19;20129;-75
2023/07/27 04:11:50;;;;;;;0.00;0.00;;;;;;;;;;7386217;19;20182;-74
2023/07/27 04:14:19;;;;;;;0.00;0.00;;;;;;;;;;7386090;19;20192;-75
2023/07/27 04:16:51;;;;;;;0.00;0.00;;;;;;;;;;7385470;19;20153;-75
2023/07/27 04:19:20;;;;;;;0.00;0.00;;;;;;;;;;7385941;19;20145;-75
2023/07/27 04:21:49;;;;;;;0.10;0.10;;;;;;;;;;7385140;19;20153;-73
2023/07/27 04:24:20;;;;;;;0.00;0.00;;;;;;;;;;7385932;19;20177;-74
2023/07/27 04:26:49;;;;;;;0.00;0.00;;;;;;;;;;7385981;19;20149;-74
2023/07/27 04:29:18;;;;;;;0.00;0.00;;;;;;;;;;7393330;19;20141;-74
2023/07/27 04:31:47;;;;;;;0.00;0.00;;;;;;;;;;7391756;19;20176;-74
2023/07/27 04:34:16;;;;;;;0.10;0.10;;;;;;;;;;7393118;19;20153;-75
2023/07/27 04:36:47;;;;;;;0.00;0.00;;;;;;;;;;7394372;19;20141;-74
2023/07/27 04:39:16;;;;;;;0.00;0.00;;;;;;;;;;7393655;19;20132;-74
2023/07/27 04:41:48;;;;;;;0.00;0.00;;;;;;;;;;7394330;19;20135;-74
2023/07/27 04:44:17;;;;;;;0.00;0.00;;;;;;;;;;7393856;19;20178;-75
2023/07/27 04:46:46;;;;;;;0.00;0.00;;;;;;;;;;7394693;19;20612;-75
2023/07/27 04:49:15;;;;;;;0.00;0.00;;;;;;;;;;7393739;19;20600;-75
2023/07/27 04:51:44;;;;;;;0.10;0.10;;;;;;;;;;7394253;19;20141;-75
2023/07/27 04:54:13;;;;;;;0.00;0.00;;;;;;;;;;7393380;19;20163;-74
2023/07/27 04:56:42;;;;;;;0.00;0.00;;;;;;;;;;7393460;19;20152;-74
2023/07/27 04:59:14;;;;;;;0.00;0.00;;;;;;;;;;7392443;19;20157;-74
2023/07/27 05:01:43;;;;;;;0.00;0.00;;;;;;;;;;7394724;19;20181;-74
2023/07/27 05:04:12;;;;;;;0.00;0.00;;;;;;;;;;7391766;19;20176;-74
2023/07/27 05:06:42;;;;;;;0.00;0.00;;;;;;;;;;7392985;19;20140;-74
2023/07/27 05:09:11;;;;;;;0.00;0.00;;;;;;;;;;7390926;19;20137;-74
2023/07/27 05:11:40;;;;;;;0.00;0.00;;;;;;;;;;7390893;19;20173;-74
2023/07/27 05:14:09;;;;;;;0.00;0.00;;;;;;;;;;7392524;19;20153;-75
2023/07/27 05:16:40;;;;;;;0.00;0.00;;;;;;;;;;7390762;19;20137;-74
2023/07/27 05:19:09;;;;;;;0.00;0.00;;;;;;;;;;7383412;19;20148;-74
2023/07/27 05:21:38;;;;;;;0.00;0.00;;;;;;;;;;7387185;19;20148;-75
2023/07/27 05:24:08;;;;;;;0.00;0.00;;;;;;;;;;7391036;19;20684;-74
2023/07/27 05:26:37;;;;;;;0.00;0.00;;;;;;;;;;7391626;19;20177;-75
2023/07/27 05:29:05;;;;;;;0.00;0.00;;;;;;;;;;7390050;19;20633;-74
2023/07/27 05:31:34;;;;;;;0.07;0.07;;;;;;;;;;7392396;19;20160;-75
2023/07/27 05:34:07;;;;;;;0.00;0.00;;;;;;;;;;7388361;19;20213;-74
2023/07/27 05:36:36;;;;;;;0.10;0.10;;;;;;;;;;7392581;19;20136;-74
2023/07/27 05:39:05;;;;;;;0.00;0.00;;;;;;;;;;7389926;19;20144;-73
2023/07/27 05:41:35;;;;;;;0.00;0.00;;;;;;;;;;7391489;19;20160;-74
2023/07/27 05:44:04;;;;;;;0.00;0.00;;;;;;;;;;7387308;19;20188;-74
2023/07/27 05:46:33;;;;;;;0.00;0.00;;;;;;;;;;7391893;19;20160;-75
2023/07/27 05:49:02;;;;;;;0.00;0.00;;;;;;;;;;7390113;19;20149;-75
2023/07/27 05:51:34;;;;;;;0.00;0.00;;;;;;;;;;7390980;19;20157;-75
2023/07/27 05:54:02;;;;;;;0.00;0.00;;;;;;;;;;7389582;19;20211;-75
2023/07/27 05:56:31;;;;;;;0.00;0.00;;;;;;;;;;7392268;19;20153;-75
2023/07/27 05:59:00;;;;;;;0.00;0.00;;;;;;;;;;7391518;19;20140;-74
2023/07/27 06:01:29;;;;;;;0.00;0.00;;;;;;;;;;7390095;19;20202;-74
2023/07/27 06:04:00;;;;;;;0.00;0.00;;;;;;;;;;7389761;19;20173;-75
2023/07/27 06:06:29;;;;;;;0.00;0.00;;;;;;;;;;7391321;19;20157;-74
2023/07/27 06:09:00;;;;;;;0.10;0.10;;;;;;;;;;7387387;19;20152;-75
2023/07/27 06:11:30;;;;;;;0.00;0.00;;;;;;;;;;7390933;19;20153;-74
2023/07/27 06:13:59;;;;;;;0.00;0.00;;;;;;;;;;7387070;19;20180;-75
2023/07/27 06:16:28;;;;;;;0.00;0.00;;;;;;;;;;7390535;19;20152;-74
2023/07/27 06:18:57;;;;;;;0.00;0.00;;;;;;;;;;7389488;19;20145;-74
2023/07/27 06:21:26;;;;;;;0.10;0.10;;;;;;;;;;7389621;19;20152;-75
2023/07/27 06:23:55;;;;;;;0.00;0.00;;;;;;;;;;7388647;19;20180;-75
2023/07/27 06:26:29;;;;;;;0.00;0.00;;;;;;;;;;7390465;19;20157;-74
2023/07/27 06:28:58;;;;;;;0.00;0.00;;;;;;;;;;7388508;19;20153;-75
2023/07/27 06:31:27;;;;;;;0.00;0.00;;;;;;;;;;7389390;19;20160;-75
2023/07/27 06:33:56;;;;;;;0.00;0.00;;;;;;;;;;7387319;19;20205;-76
2023/07/27 06:36:25;;;;;;;0.00;0.00;;;;;;;;;;7390953;19;20155;-77
2023/07/27 06:38:54;;;;;;;0.00;0.00;;;;;;;;;;7390008;19;20159;-75
2023/07/27 06:41:25;;;;;;;0.10;0.10;;;;;;;;;;7389421;19;20148;-75
2023/07/27 06:43:57;;;;;;;0.00;0.00;;;;;;;;;;7388488;19;20180;-75
2023/07/27 06:46:26;;;;;;;0.00;0.00;;;;;;;;;;7389041;19;20145;-74
2023/07/27 06:48:55;;;;;;;0.00;0.00;;;;;;;;;;7388410;19;20157;-75
2023/07/27 06:51:25;;;;;;;0.10;0.10;;;;;;;;;;7388186;19;20137;-75
2023/07/27 06:53:54;;;;;;;0.00;0.00;;;;;;;;;;7387971;19;20176;-75
2023/07/27 06:56:23;;;;;;;0.00;0.00;;;;;;;;;;7391535;19;20184;-75
2023/07/27 06:58:52;;;;;;;0.00;0.00;;;;;;;;;;7389340;19;20148;-75
2023/07/27 07:01:24;;;;;;;0.00;0.00;;;;;;;;;;7388118;19;20129;-76
2023/07/27 07:03:53;;;;;;;0.00;0.00;;;;;;;;;;7389143;19;20153;-75
2023/07/27 07:06:22;;;;;;;0.00;0.00;;;;;;;;;;7390260;19;20137;-75
2023/07/27 07:08:51;;;;;;;0.00;0.00;;;;;;;;;;7387386;19;20153;-75
2023/07/27 07:11:20;;;;;;;0.00;0.00;;;;;;;;;;7388184;19;20160;-75
2023/07/27 07:13:49;;;;;;;0.00;0.00;;;;;;;;;;7387335;19;20188;-75
2023/07/27 07:16:18;;;;;;;0.00;0.00;;;;;;;;;;7387907;19;20157;-76
2023/07/27 07:18:49;;;;;;;0.00;0.00;;;;;;;;;;7390744;19;20141;-75
2023/07/27 07:21:19;;;;;;;0.00;0.00;;;;;;;;;;7387050;19;20147;-76
2023/07/27 07:23:48;;;;;;;0.00;0.00;;;;;;;;;;7389064;19;20184;-75
2023/07/27 07:26:17;;;;;;;0.00;0.00;;;;;;;;;;7389718;19;20140;-76
2023/07/27 07:28:45;;;;;;;0.00;0.00;;;;;;;;;;7388698;19;20157;-75
2023/07/27 07:31:15;;;;;;;0.00;0.00;;;;;;;;;;7386566;19;20331;-76
2023/07/27 07:33:44;;;;;;;0.00;0.00;;;;;;;;;;7386719;19;20176;-75
2023/07/27 07:36:16;;;;;;;0.00;0.00;;;;;;;;;;7387707;19;20160;-76
2023/07/27 07:38:45;;;;;;;0.00;0.00;;;;;;;;;;7388714;19;20161;-75
2023/07/27 07:41:14;;;;;;;0.00;0.00;;;;;;;;;;7388229;19;20139;-75
2023/07/27 07:43:43;;;;;;;0.00;0.00;;;;;;;;;;7388620;19;20153;-75
2023/07/27 07:46:13;;;;;;;0.00;0.00;;;;;;;;;;7387885;19;20173;-76
2023/07/27 07:48:42;;;;;;;0.00;0.00;;;;;;;;;;7390457;19;20137;-75
2023/07/27 07:51:12;;;;;;;0.00;0.00;;;;;;;;;;7384285;19;20156;-76
2023/07/27 07:53:44;;;;;;;0.00;0.00;;;;;;;;;;7387478;19;20185;-75
2023/07/27 07:56:15;;;;;;;0.00;0.00;;;;;;;;;;7388191;19;20149;-76
2023/07/27 07:58:44;;;;;;;0.00;0.00;;;;;;;;;;7390101;19;20133;-75
2023/07/27 08:01:13;;;;;;;0.00;0.00;;;;;;;;;;7389999;19;20157;-75
2023/07/27 08:03:42;;;;;;;0.00;0.00;;;;;;;;;;7394803;19;20191;-75
2023/07/27 08:06:13;;;;;;;0.00;0.00;;;;;;;;;;7396928;19;20177;-75
2023/07/27 08:08:46;;;;;;;0.00;0.00;;;;;;;;;;7397386;19;20141;-75
2023/07/27 08:11:14;;;;;;;0.00;0.00;;;;;;;;;;7391593;19;20133;-75
2023/07/27 08:13:43;;;;;;;0.00;0.00;;;;;;;;;;7394848;19;20183;-76
2023/07/27 08:16:12;;;;;;;0.03;0.03;;;;;;;;;;7394845;19;20141;-75
2023/07/27 08:18:41;;;;;;;0.00;0.00;;;;;;;;;;7393586;19;20163;-75
2023/07/27 08:21:11;;;;;;;0.00;0.00;;;;;;;;;;7394983;19;20140;-75
2023/07/27 08:23:40;;;;;;;0.00;0.00;;;;;;;;;;7394715;19;20221;-75
2023/07/27 08:26:12;;;;;;;0.00;0.00;;;;;;;;;;7395035;19;20157;-75
2023/07/27 08:28:41;;;;;;;0.00;0.00;;;;;;;;;;7395598;19;20151;-75
2023/07/27 08:31:10;;;;;;;0.00;0.00;;;;;;;;;;7390137;19;20161;-74
2023/07/27 08:33:39;;;;;;;0.00;0.00;;;;;;;;;;7392470;19;20183;-75
2023/07/27 08:36:09;;;;;;;0.00;0.00;;;;;;;;;;7395788;19;20137;-74
2023/07/27 08:38:38;;;;;;;0.00;0.00;;;;;;;;;;7396695;19;20515;-75
2023/07/27 08:41:07;;;;;;;0.00;0.00;;;;;;;;;;7393366;19;20178;-75
2023/07/27 08:43:39;;;;;;;0.00;0.00;;;;;;;;;;7395625;19;20185;-75
2023/07/27 08:46:08;;;;;;;0.00;0.00;;;;;;;;;;7394848;19;20149;-75
2023/07/27 08:48:37;;;;;;;0.00;0.00;;;;;;;;;;7395557;19;20141;-75
2023/07/27 08:51:06;;;;;;;0.00;0.00;;;;;;;;;;7390759;19;20149;-75
2023/07/27 08:53:35;;;;;;;0.00;0.00;;;;;;;;;;7392367;19;20184;-75
2023/07/27 08:56:04;;;;;;;0.00;0.00;;;;;;;;;;7392237;19;20205;-75
2023/07/27 08:58:33;;;;;;;0.00;0.00;;;;;;;;;;7391007;19;20144;-74
2023/07/27 09:01:05;;;;;;;0.00;0.00;;;;;;;;;;7392062;19;20169;-75
2023/07/27 09:03:34;;;;;;;0.00;0.00;;;;;;;;;;7393238;19;20157;-75
2023/07/27 09:06:03;;;;;;;0.00;0.00;;;;;;;;;;7392861;19;20153;-75
2023/07/27 09:08:33;;;;;;;0.00;0.00;;;;;;;;;;7390367;19;20140;-75
2023/07/27 09:11:12;;;;;;;0.00;0.00;;;;;;;;;;7385589;19;20291;-75
2023/07/27 09:13:42;;;;;;;0.00;0.00;;;;;;;;;;7391685;19;20164;-75
2023/07/27 09:16:13;;;;;;;0.00;0.00;;;;;;;;;;7393427;19;20132;-75
2023/07/27 09:18:42;;;;;;;0.00;0.00;;;;;;;;;;7394723;19;20200;-74
2023/07/27 09:21:12;;;;;;;0.00;0.00;;;;;;;;;;7391926;19;20227;-75
2023/07/27 09:23:41;;;;;;;0.00;0.00;;;;;;;;;;7392857;19;20153;-75
2023/07/27 09:26:10;;;;;;;0.00;0.00;;;;;;;;;;7390646;19;20160;-75
2023/07/27 09:28:39;;;;;;;0.00;0.00;;;;;;;;;;7391003;19;20595;-75
2023/07/27 09:31:08;;;;;;;0.00;0.00;;;;;;;;;;7389045;19;20152;-75
2023/07/27 09:33:40;;;;;;;0.00;0.00;;;;;;;;;;7391313;19;20156;-75
2023/07/27 09:36:09;;;;;;;0.00;0.00;;;;;;;;;;7391775;19;20159;-75
2023/07/27 09:38:38;;;;;;;0.00;0.00;;;;;;;;;;7391673;19;20160;-75
2023/07/27 09:41:11;;;;;;;0.00;0.00;;;;;;;;;;7392780;19;20158;-74
2023/07/27 09:43:41;;;;;;;0.00;0.00;;;;;;;;;;7392537;19;20163;-75
2023/07/27 09:46:10;;;;;;;0.00;0.00;;;;;;;;;;7393724;19;20142;-75
2023/07/27 09:48:41;;;;;;;0.00;0.00;;;;;;;;;;7393197;19;20140;-75
2023/07/27 09:51:11;;;;;;;0.00;0.00;;;;;;;;;;7391130;19;20148;-75
2023/07/27 09:53:40;;;;;;;0.00;0.00;;;;;;;;;;7393597;19;20152;-74
2023/07/27 09:56:10;;;;;;;0.00;0.00;;;;;;;;;;7393630;19;20137;-74
2023/07/27 09:58:39;;;;;;;0.00;0.00;;;;;;;;;;7390175;19;20157;-74
2023/07/27 10:01:08;;;;;;;0.00;0.00;;;;;;;;;;7386872;19;20159;-74
2023/07/27 10:03:37;;;;;;;0.00;0.00;;;;;;;;;;7389108;19;20176;-74
2023/07/27 10:06:09;;;;;;;0.00;0.00;;;;;;;;;;7392597;19;20133;-74
2023/07/27 10:08:38;;;;;;;0.00;0.00;;;;;;;;;;7391727;19;20129;-74
2023/07/27 10:11:07;;;;;;;0.00;0.00;;;;;;;;;;7390574;19;20470;-74
2023/07/27 10:13:41;;;;;;;0.00;0.00;;;;;;;;;;7390290;19;20181;-73
2023/07/27 10:16:11;;;;;;;0.00;0.00;;;;;;;;;;7390335;19;20168;-74
2023/07/27 10:18:45;;;;;;;0.00;0.00;;;;;;;;;;7390699;19;20219;-74
2023/07/27 10:21:28;;;;;;;0.00;0.00;;;;;;;;;;7389468;19;20173;-74
2023/07/27 10:24:01;;;;;;;0.00;0.00;;;;;;;;;;7387964;19;20184;-74
2023/07/27 10:26:46;;;;;;;0.00;0.00;;;;;;;;;;7390319;19;20141;-74
2023/07/27 10:29:17;;;;;;;0.00;0.00;;;;;;;;;;7388888;19;20222;-75
2023/07/27 10:31:46;;;;;;;0.00;0.00;;;;;;;;;;7389083;19;20161;-74
2023/07/27 10:34:16;;;;;;;0.00;0.00;;;;;;;;;;7388472;19;20160;-74
2023/07/27 10:36:52;;;;;;;0.00;0.00;;;;;;;;;;7388805;19;20167;-74
2023/07/27 10:39:27;;;;;;;0.00;0.00;;;;;;;;;;7388568;19;20187;-74
2023/07/27 10:42:04;;;;;;;0.00;0.00;;;;;;;;;;7388988;19;20159;-74
2023/07/27 10:44:42;;;;;;;0.00;0.00;;;;;;;;;;7386828;19;20227;-74
2023/07/27 10:47:12;;;;;;;0.00;0.00;;;;;;;;;;7390131;19;20133;-75
2023/07/27 10:49:42;;;;;;;0.00;0.00;;;;;;;;;;7388836;19;20161;-75
2023/07/27 10:52:11;;;;;;;0.00;0.00;;;;;;;;;;7384592;19;20216;-74
2023/07/27 10:54:44;;;;;;;0.00;0.00;;;;;;;;;;7386713;19;20183;-74
2023/07/27 10:57:14;;;;;;;0.00;0.00;;;;;;;;;;7389859;19;20140;-74
2023/07/27 10:59:43;;;;;;;0.00;0.00;;;;;;;;;;7387216;19;20165;-74
2023/07/27 11:02:14;;;;;;;0.00;0.00;;;;;;;;;;7389962;19;20153;-75
2023/07/27 11:04:43;;;;;;;0.00;0.00;;;;;;;;;;7387514;19;20153;-74
2023/07/27 11:07:14;;;;;;;0.00;0.00;;;;;;;;;;7387657;19;20166;-74
2023/07/27 11:09:49;;;;;;;0.00;0.00;;;;;;;;;;7388635;19;20187;-75
2023/07/27 11:12:18;;;;;;;0.00;0.00;;;;;;;;;;7387490;19;20498;-75
2023/07/27 11:14:47;;;;;;;0.00;0.00;;;;;;;;;;7388412;19;20153;-74
2023/07/27 11:17:16;;;;;;;0.00;0.00;;;;;;;;;;7387753;19;20141;-74
2023/07/27 11:19:45;;;;;;;0.00;0.00;;;;;;;;;;7386202;19;20593;-74
2023/07/27 11:22:14;;;;;;;0.00;0.00;;;;;;;;;;7386423;19;20149;-75
2023/07/27 11:24:43;;;;;;;0.00;0.00;;;;;;;;;;7387676;19;20148;-73
2023/07/27 11:27:15;;;;;;;0.00;0.00;;;;;;;;;;7385491;19;20223;-75
2023/07/27 11:29:49;;;;;;;0.00;0.00;;;;;;;;;;7387047;19;20129;-74
2023/07/27 11:32:18;;;;;;;0.00;0.00;;;;;;;;;;7387703;19;20485;-75
2023/07/27 11:34:47;;;;;;;0.00;0.00;;;;;;;;;;7385568;19;20183;-74
2023/07/27 11:37:16;;;;;;;0.00;0.00;;;;;;;;;;7387386;19;20161;-75
2023/07/27 11:39:45;;;;;;;0.00;0.00;;;;;;;;;;7388806;19;20145;-74
2023/07/27 11:42:28;;;;;;;0.00;0.00;;;;;;;;;;7389387;19;20471;-75
2023/07/27 11:44:57;;;;;;;0.00;0.00;;;;;;;;;;7387986;19;20652;-74
2023/07/27 11:47:26;;;;;;;0.00;0.00;;;;;;;;;;7389710;19;20141;-75
2023/07/27 11:49:56;;;;;;;0.00;0.00;;;;;;;;;;7387669;19;20164;-74
2023/07/27 11:52:25;;;;;;;0.00;0.00;;;;;;;;;;7386285;19;20149;-74
2023/07/27 11:54:55;;;;;;;0.00;0.00;;;;;;;;;;7387812;19;20153;-74
2023/07/27 11:57:27;;;;;;;0.00;0.00;;;;;;;;;;7389549;19;20133;-74
2023/07/27 12:00:12;;;;;;;0.00;0.00;;;;;;;;;;7387693;19;20152;-75
2023/07/27 12:02:41;;;;;;;0.00;0.00;;;;;;;;;;7388603;19;20141;-74
2023/07/27 12:05:12;;;;;;;0.00;0.00;;;;;;;;;;7383783;19;20191;-74
2023/07/27 12:07:41;;;;;;;0.00;0.00;;;;;;;;;;7388116;19;20174;-74
2023/07/27 12:10:14;;;;;;;0.00;0.00;;;;;;;;;;7385207;19;20141;-74
2023/07/27 12:12:52;;;;;;;0.00;0.00;;;;;;;;;;7382608;19;20137;-74
2023/07/27 12:15:27;;;;;;;0.00;0.00;;;;;;;;;;7390185;19;20147;-75
2023/07/27 12:17:57;;;;;;;0.00;0.00;;;;;;;;;;7386946;19;20155;-75
2023/07/27 12:20:27;;;;;;;0.00;0.00;;;;;;;;;;7386274;19;20156;-76
2023/07/27 12:22:56;;;;;;;0.00;0.00;;;;;;;;;;7386151;19;20216;-72
2023/07/27 12:25:25;;;;;;;0.00;0.00;;;;;;;;;;7385651;19;20155;-72
2023/07/27 12:27:57;;;;;;;0.00;0.00;;;;;;;;;;7386388;19;20157;-71
2023/07/27 12:30:26;;;;;;;0.00;0.00;;;;;;;;;;7385733;19;20153;-71
2023/07/27 12:32:55;;;;;;;0.00;0.00;;;;;;;;;;7386662;19;20158;-72
2023/07/27 12:35:24;;;;;;;0.00;0.00;;;;;;;;;;7388106;19;20166;-74
2023/07/27 12:37:54;;;;;;;0.00;0.00;;;;;;;;;;7387588;19;20137;-72
2023/07/27 12:40:23;;;;;;;0.00;0.00;;;;;;;;;;7386540;19;20129;-73
2023/07/27 12:42:52;;;;;;;0.00;0.00;;;;;;;;;;7384438;19;20149;-73
2023/07/27 12:45:26;;;;;;;0.00;0.00;;;;;;;;;;7386465;19;20157;-75
2023/07/27 12:47:55;;;;;;;0.00;0.00;;;;;;;;;;7388419;19;20136;-76
2023/07/27 12:50:25;;;;;;;0.00;0.00;;;;;;;;;;7395596;19;20145;-80
2023/07/27 12:52:54;;;;;;;0.00;0.00;;;;;;;;;;7391947;19;20164;-80
2023/07/27 12:55:23;;;;;;;0.00;0.00;;;;;;;;;;7395452;19;20140;-77
2023/07/27 12:57:52;;;;;;;0.00;0.00;;;;;;;;;;7393823;19;20501;-78
2023/07/27 13:00:23;;;;;;;0.00;0.00;;;;;;;;;;7395260;19;20137;-78
2023/07/27 13:02:52;;;;;;;0.00;0.00;;;;;;;;;;7395203;19;20141;-79
2023/07/27 13:05:21;;;;;;;0.00;0.00;;;;;;;;;;7393788;19;20184;-79
2023/07/27 13:07:50;;;;;;;0.00;0.00;;;;;;;;;;7395944;19;20148;-80
2023/07/27 13:10:19;;;;;;;0.00;0.00;;;;;;;;;;7395985;19;20133;-80
2023/07/27 13:12:48;;;;;;;0.00;0.00;;;;;;;;;;7391555;19;20152;-80
2023/07/27 13:15:18;;;;;;;0.00;0.00;;;;;;;;;;7397002;19;20133;-81
2023/07/27 13:17:50;;;;;;;0.00;0.00;;;;;;;;;;7398695;19;20228;-81
2023/07/27 13:20:19;;;;;;;0.00;0.00;;;;;;;;;;7398631;19;20141;-80
2023/07/27 13:22:48;;;;;;;0.00;0.00;;;;;;;;;;7399228;19;20151;-81
2023/07/27 13:25:17;;;;;;;0.00;0.00;;;;;;;;;;7399108;19;20140;-80
2023/07/27 13:27:47;;;;;;;0.00;0.00;;;;;;;;;;7399016;19;20165;-80
2023/07/27 13:30:16;;;;;;;0.10;0.10;;;;;;;;;;7396820;19;20132;-79
2023/07/27 13:32:44;;;;;;;0.00;0.00;;;;;;;;;;7391929;19;20133;-81
2023/07/27 13:35:16;;;;;;;0.00;0.00;;;;;;;;;;7387410;19;20152;-83
2023/07/27 13:37:45;;;;;;;0.00;0.00;;;;;;;;;;7394656;19;20149;-81
2023/07/27 13:40:15;;;;;;;0.00;0.00;;;;;;;;;;7395980;19;20169;-81
2023/07/27 13:42:44;;;;;;;0.00;0.00;;;;;;;;;;7383997;19;20160;-82
2023/07/27 13:45:13;;;;;;;0.00;0.00;;;;;;;;;;7394543;19;20164;-83
2023/07/27 13:47:42;;;;;;;0.00;0.00;;;;;;;;;;7393465;19;20156;-82
2023/07/27 13:50:11;;;;;;;0.00;0.00;;;;;;;;;;7393017;19;20167;-81
2023/07/27 13:52:43;;;;;;;0.00;0.00;;;;;;;;;;7389948;19;20188;-73
2023/07/27 13:55:12;;;;;;;0.00;0.00;;;;;;;;;;7383913;19;20204;-73
2023/07/27 13:57:41;;;;;;;0.00;0.00;;;;;;;;;;7384950;19;20137;-73
2023/07/27 14:00:11;;;;;;;0.00;0.00;;;;;;;;;;7382988;19;20163;-74
2023/07/27 14:02:40;;;;;;;0.00;0.00;;;;;;;;;;7383532;19;20149;-73
2023/07/27 14:05:09;;;;;;;0.00;0.00;;;;;;;;;;7383153;19;20488;-73
2023/07/27 14:07:38;;;;;;;0.00;0.00;;;;;;;;;;7382493;19;20156;-73
2023/07/27 14:10:11;;;;;;;0.00;0.00;;;;;;;;;;7382026;19;20204;-73
2023/07/27 14:12:41;;;;;;;0.00;0.00;;;;;;;;;;7380936;19;20148;-75
2023/07/27 14:15:11;;;;;;;0.00;0.00;;;;;;;;;;7383557;19;20149;-74
2023/07/27 14:17:40;;;;;;;0.00;0.00;;;;;;;;;;7383101;19;20153;-73
2023/07/27 14:20:10;;;;;;;0.00;0.00;;;;;;;;;;7381289;19;20181;-74
2023/07/27 14:22:39;;;;;;;0.00;0.00;;;;;;;;;;7382598;19;20149;-73
2023/07/27 14:25:11;;;;;;;0.00;0.00;;;;;;;;;;7382584;19;20167;-73
2023/07/27 14:27:40;;;;;;;0.00;0.00;;;;;;;;;;7383171;19;20148;-73
2023/07/27 14:30:10;;;;;;;0.00;0.00;;;;;;;;;;7382982;19;20306;-73
2023/07/27 14:32:39;;;;;;;0.00;0.00;;;;;;;;;;7383327;19;20148;-73
2023/07/27 14:35:08;;;;;;;0.00;0.00;;;;;;;;;;7381320;19;20216;-73
2023/07/27 14:37:37;;;;;;;0.00;0.00;;;;;;;;;;7384726;19;20159;-73
2023/07/27 14:40:07;;;;;;;0.00;0.00;;;;;;;;;;7380812;19;20180;-73
2023/07/27 14:42:39;;;;;;;0.00;0.00;;;;;;;;;;7384499;19;20136;-73
2023/07/27 14:45:09;;;;;;;0.00;0.00;;;;;;;;;;7383209;19;20156;-73
2023/07/27 14:47:37;;;;;;;0.00;0.00;;;;;;;;;;7382365;19;20176;-72
2023/07/27 14:50:07;;;;;;;0.00;0.00;;;;;;;;;;7380317;19;20176;-73
2023/07/27 14:52:36;;;;;;;0.00;0.00;;;;;;;;;;7376946;19;20160;-72
2023/07/27 14:55:05;;;;;;;0.00;0.00;;;;;;;;;;7382627;19;20644;-73
2023/07/27 14:57:34;;;;;;;0.00;0.00;;;;;;;;;;7380920;19;20149;-73
2023/07/27 15:00:06;;;;;;;0.00;0.00;;;;;;;;;;7379497;19;20161;-73